Time;durP1;ratioP1;P1;durP2;ratioP2;P2;SDS_P1;SDS_P2;PMS_P1;PMS_P2;Temp;Humidity;BMP_temperature;BMP_pressure;BME280_temperature;BME280_humidity;BME280_pressure;Samples;Min_cycle;Max_cycle;Signal;HPM_P1;HPM_P2
2021/12/11 00:00:38;;;;;;;9.05;6.53;;;;;;;4.94;70.53;99979.34;5069069;28;20048;-61
2021/12/11 00:03:15;;;;;;;10.73;7.47;;;;;;;4.93;70.36;99983.72;5068839;28;20052;-63
2021/12/11 00:05:46;;;;;;;12.65;8.80;;;;;;;4.91;70.44;99982.91;5072030;28;20045;-64
2021/12/11 00:08:17;;;;;;;11.85;8.40;;;;;;;4.88;70.33;99975.28;5072613;28;20117;-60
2021/12/11 00:10:50;;;;;;;17.55;10.95;;;;;;;4.83;70.24;99972.88;5074465;28;20059;-61
2021/12/11 00:13:23;;;;;;;17.83;10.00;;;;;;;4.77;70.28;99972.31;5092352;28;20048;-62
2021/12/11 00:15:51;;;;;;;16.20;9.07;;;;;;;4.75;70.27;99975.00;5074747;28;20045;-60
2021/12/11 00:18:24;;;;;;;13.00;8.52;;;;;;;4.75;69.95;99975.00;5087515;28;20407;-63
2021/12/11 00:20:56;;;;;;;12.55;7.88;;;;;;;4.73;69.87;99966.41;5091451;28;20040;-61
2021/12/11 00:23:40;;;;;;;14.68;8.00;;;;;;;4.71;69.80;99974.28;5089693;28;20048;-61
2021/12/11 00:26:10;;;;;;;10.82;7.10;;;;;;;4.73;69.58;99969.00;5092118;28;20138;-61
2021/12/11 00:28:49;;;;;;;12.07;7.07;;;;;;;4.71;69.66;99968.22;5092248;28;20566;-61
2021/12/11 00:31:17;;;;;;;10.02;6.70;;;;;;;4.66;69.71;99968.44;5088396;28;20036;-61
2021/12/11 00:33:45;;;;;;;11.68;7.15;;;;;;;4.66;69.65;99967.59;5071742;28;20547;-61
2021/12/11 00:36:16;;;;;;;10.82;7.07;;;;;;;4.65;69.63;99976.31;5071904;28;20052;-60
2021/12/11 00:38:47;;;;;;;11.68;7.25;;;;;;;4.57;69.84;99964.50;5071985;28;20052;-60
2021/12/11 00:41:17;;;;;;;10.73;6.45;;;;;;;4.58;69.38;99968.78;5071821;28;20489;-62
2021/12/11 00:43:46;;;;;;;10.07;6.78;;;;;;;4.56;69.56;99970.59;5071872;28;20049;-67
2021/12/11 00:46:17;;;;;;;9.10;5.93;;;;;;;4.61;69.44;99967.81;5071925;28;20485;-61
2021/12/11 00:48:44;;;;;;;11.43;7.22;;;;;;;4.56;69.32;99972.38;5085373;28;20514;-61
2021/12/11 00:51:20;;;;;;;14.85;8.10;;;;;;;4.60;69.15;99973.03;5091885;28;20071;-64
2021/12/11 00:53:48;;;;;;;11.55;7.32;;;;;;;4.60;68.97;99971.31;5091598;28;20044;-61
2021/12/11 00:56:20;;;;;;;11.55;7.20;;;;;;;4.60;69.02;99968.72;5091803;28;20039;-61
2021/12/11 00:58:50;;;;;;;10.00;6.57;;;;;;;4.57;69.02;99976.63;5091852;28;20105;-64
2021/12/11 01:01:30;;;;;;;11.02;6.85;;;;;;;4.50;68.81;99983.84;5091955;28;20041;-61
2021/12/11 01:04:11;;;;;;;12.43;6.80;;;;;;;4.44;68.69;99981.53;5090596;28;20044;-61
2021/12/11 01:06:50;;;;;;;11.45;6.90;;;;;;;4.42;68.91;99985.97;5091894;28;20098;-61
2021/12/11 01:09:29;;;;;;;12.18;7.13;;;;;;;4.38;68.89;99980.03;5091863;28;20058;-61
2021/12/11 01:12:10;;;;;;;10.27;6.82;;;;;;;4.36;68.82;99981.03;5091541;28;20055;-62
2021/12/11 01:14:51;;;;;;;10.38;6.38;;;;;;;4.34;68.59;99977.63;5091752;28;20067;-61
2021/12/11 01:17:44;;;;;;;10.57;6.57;;;;;;;4.30;68.47;99979.53;5091863;28;20121;-61
2021/12/11 01:20:37;;;;;;;10.82;7.30;;;;;;;4.26;68.36;99983.16;5094595;28;20067;-61
2021/12/11 01:23:15;;;;;;;10.02;6.32;;;;;;;4.25;68.48;99978.88;5093799;28;20048;-67
2021/12/11 01:25:45;;;;;;;10.23;6.82;;;;;;;4.20;68.46;99991.22;5095440;28;20599;-60
2021/12/11 01:28:14;;;;;;;9.82;6.82;;;;;;;4.19;68.36;99994.72;5087602;28;20462;-61
2021/12/11 01:30:42;;;;;;;9.60;6.10;;;;;;;4.21;68.20;99988.53;5095284;28;20044;-60
2021/12/11 01:33:10;;;;;;;11.65;6.82;;;;;;;4.21;68.09;99992.91;5094985;28;20560;-61
2021/12/11 01:35:37;;;;;;;8.48;6.10;;;;;;;4.19;67.94;99989.53;5089188;28;20084;-62
2021/12/11 01:38:25;;;;;;;8.07;6.10;;;;;;;4.17;67.98;99992.19;5095021;28;20044;-61
2021/12/11 01:40:58;;;;;;;9.50;6.00;;;;;;;4.18;67.75;99996.47;5094985;28;20048;-60
2021/12/11 01:43:28;;;;;;;7.95;5.75;;;;;;;4.16;68.00;99993.09;5094873;28;20101;-60
2021/12/11 01:45:57;;;;;;;9.82;6.00;;;;;;;4.11;67.73;99986.41;5094876;28;20051;-60
2021/12/11 01:48:35;;;;;;;10.00;6.03;;;;;;;4.12;67.86;99995.91;5095139;28;20048;-60
2021/12/11 01:51:05;;;;;;;9.18;5.45;;;;;;;4.11;67.95;99994.22;5083273;28;20044;-61
2021/12/11 01:53:37;;;;;;;7.68;5.32;;;;;;;4.09;67.59;99996.88;5074505;28;20074;-61
2021/12/11 01:56:09;;;;;;;8.70;5.38;;;;;;;4.06;67.48;100009.97;5074371;28;20048;-67
2021/12/11 01:58:43;;;;;;;7.38;5.15;;;;;;;4.02;67.85;100003.22;5074646;28;20049;-60
2021/12/11 02:01:19;;;;;;;9.63;5.97;;;;;;;4.01;67.65;100009.31;5074335;28;20041;-61
2021/12/11 02:03:49;;;;;;;6.75;4.68;;;;;;;4.00;67.54;100007.63;5074492;28;20118;-65
2021/12/11 02:06:16;;;;;;;6.75;4.60;;;;;;;3.97;67.45;100007.75;5074442;28;20053;-61
2021/12/11 02:08:44;;;;;;;6.18;4.50;;;;;;;3.99;67.35;100016.34;5073698;28;20036;-61
2021/12/11 02:11:18;;;;;;;7.65;4.88;;;;;;;3.97;67.13;100013.78;5073982;28;20135;-60
2021/12/11 02:13:51;;;;;;;5.82;4.40;;;;;;;3.92;67.14;100010.53;5074074;28;20057;-60
2021/12/11 02:16:32;;;;;;;4.50;4.00;;;;;;;3.91;67.18;100009.69;5074301;28;20053;-61
2021/12/11 02:19:06;;;;;;;7.43;4.90;;;;;;;3.88;67.10;100001.19;5073989;28;20094;-61
2021/12/11 02:22:10;;;;;;;6.65;4.70;;;;;;;3.85;66.95;99998.72;5074225;28;20044;-60
2021/12/11 02:24:42;;;;;;;7.82;5.38;;;;;;;3.85;66.81;99991.78;5031825;28;20045;-61
2021/12/11 02:27:24;;;;;;;7.40;4.88;;;;;;;3.83;66.81;99997.94;5073918;28;20049;-61
2021/12/11 02:29:58;;;;;;;10.52;5.40;;;;;;;3.82;66.87;99997.09;5073772;28;20072;-61
2021/12/11 02:32:32;;;;;;;6.18;4.45;;;;;;;3.83;66.74;100003.97;5073790;28;20049;-61
2021/12/11 02:35:08;;;;;;;6.45;4.80;;;;;;;3.81;66.91;99992.81;5073671;28;20056;-61
2021/12/11 02:37:44;;;;;;;5.85;4.32;;;;;;;3.80;66.99;99998.91;5073857;28;20045;-61
2021/12/11 02:40:21;;;;;;;6.88;4.38;;;;;;;3.79;66.89;99993.78;5080091;28;20059;-60
2021/12/11 02:43:26;;;;;;;5.93;4.53;;;;;;;3.79;66.91;99998.97;5093983;28;20052;-60
2021/12/11 02:46:25;;;;;;;8.52;4.72;;;;;;;3.79;66.74;99993.78;5093703;28;20070;-66
2021/12/11 02:48:58;;;;;;;7.07;4.13;;;;;;;3.79;66.74;100001.56;5072665;28;20127;-61
2021/12/11 02:51:32;;;;;;;4.88;4.03;;;;;;;3.79;66.64;100001.56;5093766;28;20048;-60
2021/12/11 02:54:05;;;;;;;5.55;4.00;;;;;;;3.79;66.56;100009.34;5093497;28;20047;-61
2021/12/11 02:56:38;;;;;;;6.88;4.35;;;;;;;3.75;66.28;100004.28;5092358;28;20478;-61
2021/12/11 02:59:09;;;;;;;5.50;3.85;;;;;;;3.78;66.34;100010.25;5093414;28;20044;-62
2021/12/11 03:01:43;;;;;;;5.70;3.80;;;;;;;3.75;66.24;100011.22;5093391;28;20044;-61
2021/12/11 03:04:30;;;;;;;4.95;3.80;;;;;;;3.75;66.40;100008.63;5093469;28;20407;-61
2021/12/11 03:07:02;;;;;;;6.03;3.90;;;;;;;3.74;66.51;100007.78;5093539;28;20044;-62
2021/12/11 03:09:31;;;;;;;4.93;3.70;;;;;;;3.74;66.44;100012.97;5093563;28;20052;-61
2021/12/11 03:12:02;;;;;;;5.95;4.10;;;;;;;3.75;66.66;100013.81;5077766;28;20577;-60
2021/12/11 03:14:31;;;;;;;4.72;3.33;;;;;;;3.71;66.59;100005.31;5073180;28;20056;-61
2021/12/11 03:16:58;;;;;;;7.65;4.10;;;;;;;3.71;66.46;100005.31;5073049;28;20048;-60
2021/12/11 03:19:29;;;;;;;6.82;3.60;;;;;;;3.74;66.39;100012.97;5073022;28;20143;-61
2021/12/11 03:21:59;;;;;;;5.30;3.72;;;;;;;3.72;66.35;100013.94;5072778;28;20052;-60
2021/12/11 03:24:27;;;;;;;6.97;3.83;;;;;;;3.72;66.46;100017.38;5072989;28;20931;-61
2021/12/11 03:26:56;;;;;;;6.03;3.97;;;;;;;3.68;66.56;100023.63;5072715;28;20052;-61
2021/12/11 03:29:23;;;;;;;5.13;3.53;;;;;;;3.71;66.47;100020.88;5091091;28;20048;-60
2021/12/11 03:31:50;;;;;;;5.00;3.50;;;;;;;3.69;66.42;100019.25;5092873;28;20523;-60
2021/12/11 03:34:21;;;;;;;6.05;3.42;;;;;;;3.66;66.42;100009.84;5092805;28;20146;-60
2021/12/11 03:36:50;;;;;;;8.02;4.00;;;;;;;3.63;66.56;100016.91;5092862;28;20059;-61
2021/12/11 03:39:21;;;;;;;5.63;3.80;;;;;;;3.61;66.47;100011.78;5092778;28;20477;-61
2021/12/11 03:41:50;;;;;;;5.93;4.10;;;;;;;3.59;66.49;100013.56;5092366;28;20121;-60
2021/12/11 03:44:17;;;;;;;8.18;5.85;;;;;;;3.60;66.49;100023.06;5080994;28;20056;-64
2021/12/11 03:46:46;;;;;;;8.32;5.10;;;;;;;3.58;66.51;100023.13;5072735;28;20048;-60
2021/12/11 03:49:16;;;;;;;6.40;4.85;;;;;;;3.60;66.30;100023.06;5072623;28;20045;-60
2021/12/11 03:51:47;;;;;;;7.25;5.03;;;;;;;3.61;66.25;100022.16;5072678;28;20051;-61
2021/12/11 03:54:20;;;;;;;5.20;3.90;;;;;;;3.58;66.28;100015.34;5072603;28;20404;-61
2021/12/11 03:56:47;;;;;;;7.07;4.45;;;;;;;3.56;66.45;100016.31;5072467;28;20052;-61
2021/12/11 03:59:14;;;;;;;6.45;4.00;;;;;;;3.51;66.59;100019.06;5075283;28;20036;-61
2021/12/11 04:01:51;;;;;;;5.93;4.15;;;;;;;3.51;66.58;100026.03;5092475;28;20044;-61
2021/12/11 04:04:34;;;;;;;5.32;3.70;;;;;;;3.47;66.43;100025.28;5088492;28;20102;-61
2021/12/11 04:07:04;;;;;;;5.60;4.05;;;;;;;3.42;66.57;100025.44;5089213;28;20416;-61
2021/12/11 04:09:31;;;;;;;5.10;3.63;;;;;;;3.38;66.51;100018.72;5089267;28;20067;-62
2021/12/11 04:11:59;;;;;;;5.40;3.53;;;;;;;3.38;66.43;100015.28;5088928;28;20060;-61
2021/12/11 04:14:34;;;;;;;5.22;3.50;;;;;;;3.36;66.44;100017.06;5084557;28;20052;-61
2021/12/11 04:17:03;;;;;;;4.70;3.70;;;;;;;3.34;66.62;100024.91;5068874;28;20056;-61
2021/12/11 04:19:32;;;;;;;7.28;3.72;;;;;;;3.34;66.32;100022.31;5069065;28;20049;-61
2021/12/11 04:21:59;;;;;;;5.28;3.45;;;;;;;3.32;66.53;100034.50;5069031;28;20055;-61
2021/12/11 04:24:29;;;;;;;5.95;3.75;;;;;;;3.35;66.48;100033.53;5068970;28;20135;-61
2021/12/11 04:26:58;;;;;;;5.53;4.03;;;;;;;3.33;66.51;100031.00;5068753;28;20052;-61
2021/12/11 04:29:25;;;;;;;7.20;4.10;;;;;;;3.33;66.36;100036.19;5068802;28;20048;-62
2021/12/11 04:31:52;;;;;;;6.60;3.90;;;;;;;3.33;66.31;100032.78;5088875;28;20048;-62
2021/12/11 04:34:21;;;;;;;7.47;4.22;;;;;;;3.33;66.17;100030.16;5088886;28;20775;-62
2021/12/11 04:37:03;;;;;;;5.30;3.63;;;;;;;3.32;66.58;100042.28;5089083;28;20044;-62
2021/12/11 04:39:35;;;;;;;6.13;4.22;;;;;;;3.35;66.25;100055.16;5088697;28;20051;-62
2021/12/11 04:42:15;;;;;;;3.80;3.40;;;;;;;3.39;66.44;100069.69;5088691;28;20055;-62
2021/12/11 04:44:45;;;;;;;6.35;4.22;;;;;;;3.40;66.44;100068.78;5088766;28;20051;-62
2021/12/11 04:47:29;;;;;;;5.00;3.78;;;;;;;3.40;66.37;100071.38;5088000;28;20044;-62
2021/12/11 04:50:02;;;;;;;6.07;3.40;;;;;;;3.38;66.57;100061.97;5088923;28;20048;-62
2021/12/11 04:52:47;;;;;;;4.95;3.63;;;;;;;3.37;66.40;100070.63;5088655;28;20048;-62
2021/12/11 04:58:12;;;;;;;6.38;3.58;;;;;;;3.29;66.56;100072.66;5092661;28;20047;-62
2021/12/11 05:03:51;;;;;;;5.65;3.95;;;;;;;3.26;66.43;100068.44;5077074;28;20497;-62
2021/12/11 05:11:56;;;;;;;9.23;5.38;;;;;;;3.20;66.40;100074.69;5071991;28;20060;-62
2021/12/11 05:14:25;;;;;;;9.07;4.78;;;;;;;3.22;66.33;100072.03;5071886;28;20122;-62
2021/12/11 05:16:52;;;;;;;8.13;5.05;;;;;;;3.21;66.41;100079.00;5071927;28;20059;-62
2021/12/11 05:19:20;;;;;;;5.97;4.35;;;;;;;3.21;66.33;100083.31;5082652;28;20044;-62
2021/12/11 05:21:46;;;;;;;5.43;4.15;;;;;;;3.20;66.26;100085.06;5092191;28;20408;-62
2021/12/11 05:24:16;;;;;;;8.75;4.25;;;;;;;3.26;66.27;100100.41;5092084;28;20044;-61
2021/12/11 05:26:43;;;;;;;7.57;4.28;;;;;;;3.23;66.45;100095.31;5092037;28;20052;-61
2021/12/11 05:29:10;;;;;;;7.03;3.90;;;;;;;3.21;66.65;100093.69;5091922;28;20044;-61
2021/12/11 05:31:37;;;;;;;4.60;3.65;;;;;;;3.19;66.40;100095.50;5092096;28;20413;-62
2021/12/11 05:34:04;;;;;;;6.45;4.50;;;;;;;3.23;66.45;100091.91;5091589;28;20048;-66
2021/12/11 05:36:32;;;;;;;7.90;4.85;;;;;;;3.21;66.59;100102.31;5071573;28;20416;-62
2021/12/11 05:39:00;;;;;;;5.75;4.35;;;;;;;3.23;66.37;100108.28;5071613;28;20048;-62
2021/12/11 05:41:27;;;;;;;5.60;4.07;;;;;;;3.18;66.64;100117.16;5071479;28;20048;-62
2021/12/11 05:43:54;;;;;;;7.20;4.43;;;;;;;3.13;66.68;100103.50;5071682;28;20557;-63
2021/12/11 05:46:22;;;;;;;7.30;4.45;;;;;;;3.05;66.95;100109.78;5071805;28;20489;-62
2021/12/11 05:48:50;;;;;;;7.82;4.88;;;;;;;3.11;66.67;100111.31;5071592;28;20559;-63
2021/12/11 05:51:21;;;;;;;7.47;5.50;;;;;;;3.13;66.76;100108.69;5071993;28;20105;-62
2021/12/11 05:53:53;;;;;;;9.25;6.63;;;;;;;3.11;66.89;100106.13;5070945;28;20485;-64
2021/12/11 05:56:21;;;;;;;12.65;6.75;;;;;;;3.15;66.80;100112.91;5071246;28;20048;-62
2021/12/11 05:58:57;;;;;;;12.80;6.95;;;;;;;3.19;66.89;100131.81;5071437;28;20044;-62
2021/12/11 06:01:59;;;;;;;9.98;7.25;;;;;;;3.18;67.05;100120.56;5071101;28;20458;-62
2021/12/11 06:04:37;;;;;;;9.90;7.47;;;;;;;3.16;67.24;100124.97;5057319;28;20077;-61
2021/12/11 06:07:08;;;;;;;12.13;7.45;;;;;;;3.17;67.26;100133.59;5070474;28;20051;-62
2021/12/11 06:09:37;;;;;;;14.60;8.68;;;;;;;3.16;67.22;100140.53;5070392;28;20048;-61
2021/12/11 06:12:09;;;;;;;11.75;7.63;;;;;;;3.19;67.23;100134.41;5070876;28;20119;-66
2021/12/11 06:14:38;;;;;;;14.27;8.88;;;;;;;3.19;67.64;100147.34;5071073;28;20053;-61
2021/12/11 06:17:09;;;;;;;13.02;7.97;;;;;;;3.19;67.50;100174.13;5070936;28;20048;-62
2021/12/11 06:19:37;;;;;;;10.60;7.57;;;;;;;3.14;67.54;100162.22;5071077;28;20052;-61
2021/12/11 06:22:04;;;;;;;11.05;8.35;;;;;;;3.13;67.46;100170.91;5071044;28;20053;-61
2021/12/11 06:24:31;;;;;;;12.15;8.13;;;;;;;3.10;67.46;100167.50;5078637;28;20055;-62
2021/12/11 06:26:58;;;;;;;15.57;8.48;;;;;;;3.09;67.61;100173.59;5090786;28;20177;-61
2021/12/11 06:29:26;;;;;;;16.65;9.23;;;;;;;3.08;67.49;100164.13;5090897;28;20048;-62
2021/12/11 06:31:53;;;;;;;11.57;8.40;;;;;;;3.09;67.57;100165.81;5076597;28;20439;-62
2021/12/11 06:34:20;;;;;;;10.93;7.57;;;;;;;3.08;67.76;100173.66;5072638;28;20053;-61
2021/12/11 06:36:47;;;;;;;12.15;8.00;;;;;;;3.07;67.92;100171.94;5070658;28;20413;-62
2021/12/11 06:39:19;;;;;;;13.52;8.02;;;;;;;3.06;67.97;100178.03;5070240;28;20052;-62
2021/12/11 06:41:55;;;;;;;14.23;8.48;;;;;;;3.07;67.60;100193.56;5069794;28;20055;-61
2021/12/11 06:44:27;;;;;;;;;;;;;;;3.00;67.96;100178.25;5070749;28;20098;-62
2021/12/11 06:46:59;;;;;;;14.35;8.38;;;;;;;3.00;67.92;100181.69;5070293;28;19921;-62
2021/12/11 06:49:29;;;;;;;15.55;9.10;;;;;;;2.97;67.96;100189.59;5085257;28;20055;-62
2021/12/11 06:51:57;;;;;;;15.68;8.73;;;;;;;3.03;67.62;100188.50;5090393;28;20074;-61
2021/12/11 06:54:25;;;;;;;12.15;8.65;;;;;;;3.00;67.69;100184.28;5090185;28;20051;-62
2021/12/11 06:56:53;;;;;;;13.80;8.40;;;;;;;2.97;67.58;100192.19;5090188;28;20504;-62
2021/12/11 06:59:21;;;;;;;15.35;9.57;;;;;;;2.98;67.59;100188.66;5088978;28;20048;-62
2021/12/11 07:01:48;;;;;;;14.85;9.45;;;;;;;2.92;67.83;100201.81;5090246;28;20497;-62
2021/12/11 07:04:15;;;;;;;17.38;9.73;;;;;;;2.93;67.69;100201.78;5090333;28;20044;-62
2021/12/11 07:06:46;;;;;;;14.05;9.57;;;;;;;2.93;67.74;100206.97;5090123;28;20105;-62
2021/12/11 07:09:14;;;;;;;15.88;9.55;;;;;;;2.94;67.75;100207.81;5076469;28;20052;-62
2021/12/11 07:11:44;;;;;;;16.58;10.27;;;;;;;2.96;67.66;100219.00;5069598;28;20061;-62
2021/12/11 07:14:16;;;;;;;16.73;10.45;;;;;;;2.97;67.47;100218.09;5068880;28;20048;-62
2021/12/11 07:16:45;;;;;;;17.60;10.60;;;;;;;2.99;67.77;100224.06;5068735;28;20499;-62
2021/12/11 07:19:14;;;;;;;14.65;10.18;;;;;;;3.08;67.52;100239.28;5069748;28;20087;-64
2021/12/11 07:21:42;;;;;;;16.73;10.90;;;;;;;3.20;67.18;100245.81;5069716;28;20102;-62
2021/12/11 07:24:13;;;;;;;18.83;10.48;;;;;;;3.33;66.73;100248.84;5069481;28;20044;-62
2021/12/11 07:26:40;;;;;;;17.73;10.93;;;;;;;3.37;66.84;100240.03;5069621;28;20064;-62
2021/12/11 07:29:11;;;;;;;19.58;10.88;;;;;;;3.43;66.77;100241.59;5069482;28;20060;-67
2021/12/11 07:31:39;;;;;;;13.73;10.40;;;;;;;3.48;66.52;100251.78;5087391;28;20040;-64
2021/12/11 07:34:06;;;;;;;18.63;10.57;;;;;;;3.50;66.49;100255.19;5082678;28;20561;-65
2021/12/11 07:36:33;;;;;;;17.42;10.65;;;;;;;3.52;66.31;100250.78;5084074;28;20484;-64
2021/12/11 07:39:04;;;;;;;14.45;10.75;;;;;;;3.57;66.34;100259.25;5085359;28;20385;-65
2021/12/11 07:41:31;;;;;;;16.42;10.63;;;;;;;3.53;66.47;100266.31;5069502;28;20416;-62
2021/12/11 07:43:59;;;;;;;16.38;9.93;;;;;;;3.44;66.66;100266.59;5082206;28;20055;-62
2021/12/11 07:46:28;;;;;;;14.38;10.60;;;;;;;3.45;66.62;100270.91;5089533;28;20055;-64
2021/12/11 07:48:57;;;;;;;21.27;9.48;;;;;;;3.47;66.69;100278.66;5088177;28;20076;-61
2021/12/11 07:51:27;;;;;;;13.32;9.32;;;;;;;3.53;66.41;100284.47;5087414;28;20050;-61
2021/12/11 07:53:58;;;;;;;14.82;9.75;;;;;;;3.64;66.26;100301.41;5069049;28;20044;-62
2021/12/11 07:56:24;;;;;;;15.13;9.90;;;;;;;3.70;66.20;100302.03;5069205;28;20052;-62
2021/12/11 07:58:55;;;;;;;17.88;10.40;;;;;;;3.80;66.02;100306.91;5068657;28;20049;-62
2021/12/11 08:01:22;;;;;;;15.02;9.52;;;;;;;3.83;66.06;100315.41;5072899;28;20048;-61
2021/12/11 08:03:49;;;;;;;11.63;8.82;;;;;;;3.92;65.99;100322.00;5085567;28;20044;-62
2021/12/11 08:06:16;;;;;;;15.60;11.05;;;;;;;4.03;65.81;100335.47;5086054;28;20080;-63
2021/12/11 08:08:45;;;;;;;15.70;10.60;;;;;;;4.19;65.71;100329.69;5088461;28;20477;-62
2021/12/11 08:11:17;;;;;;;13.82;10.30;;;;;;;4.47;64.77;100336.47;5080513;28;20049;-62
2021/12/11 08:13:46;;;;;;;15.18;11.82;;;;;;;4.78;64.34;100343.94;5084748;28;20504;-63
2021/12/11 08:16:19;;;;;;;16.77;11.52;;;;;;;5.15;63.54;100352.03;5089022;28;20048;-60
2021/12/11 08:18:46;;;;;;;15.63;11.05;;;;;;;5.45;62.64;100344.72;5089009;28;20052;-62
2021/12/11 08:21:13;;;;;;;14.75;11.25;;;;;;;5.68;62.06;100358.53;5082390;28;20040;-61
2021/12/11 08:23:44;;;;;;;16.83;11.82;;;;;;;6.03;61.24;100362.25;5088288;28;20040;-63
2021/12/11 08:26:16;;;;;;;13.48;10.15;;;;;;;6.36;60.48;100366.88;5088284;28;20076;-62
2021/12/11 08:28:44;;;;;;;14.43;10.88;;;;;;;6.66;60.02;100368.97;5092374;28;20044;-61
2021/12/11 08:31:11;;;;;;;13.40;10.00;;;;;;;6.90;59.48;100373.13;5092050;28;20113;-62
2021/12/11 08:33:38;;;;;;;12.82;10.20;;;;;;;7.15;58.89;100380.63;5092484;28;20492;-61
2021/12/11 08:36:06;;;;;;;17.70;11.15;;;;;;;7.38;58.48;100387.34;5092850;28;20101;-62
2021/12/11 08:38:33;;;;;;;17.15;11.35;;;;;;;7.47;58.22;100394.72;5091135;28;20385;-62
2021/12/11 08:41:02;;;;;;;13.23;9.98;;;;;;;7.62;57.75;100387.06;5072695;28;20048;-61
2021/12/11 08:43:29;;;;;;;21.05;16.63;;;;;;;7.81;57.36;100393.03;5072342;28;20051;-62
2021/12/11 08:46:09;;;;;;;13.45;10.30;;;;;;;7.97;56.90;100402.69;5072267;28;20481;-61
2021/12/11 08:48:39;;;;;;;16.77;12.73;;;;;;;8.16;56.51;100400.81;5074214;28;20980;-62
2021/12/11 08:51:23;;;;;;;16.83;12.35;;;;;;;8.32;56.25;100420.94;5092139;28;20048;-61
2021/12/11 08:53:50;;;;;;;18.20;12.90;;;;;;;8.50;55.71;100424.38;5092424;28;20412;-61
2021/12/11 08:56:18;;;;;;;23.13;17.75;;;;;;;8.61;55.50;100427.25;5091465;28;20058;-60
2021/12/11 08:58:46;;;;;;;22.10;13.48;;;;;;;8.81;54.94;100427.94;5092612;28;20097;-60
2021/12/11 09:01:44;;;;;;;17.48;13.73;;;;;;;8.96;54.33;100445.44;5092724;28;20048;-62
2021/12/11 09:04:20;;;;;;;28.30;24.67;;;;;;;9.08;54.20;100449.16;5092102;28;20133;-59
2021/12/11 09:06:54;;;;;;;18.88;16.00;;;;;;;9.24;53.84;100453.53;5092191;28;20566;-61
2021/12/11 09:09:36;;;;;;;18.63;13.00;;;;;;;9.42;53.31;100455.13;5090154;28;20055;-60
2021/12/11 09:12:09;;;;;;;14.20;10.80;;;;;;;9.58;52.93;100460.31;5090220;28;20044;-61
2021/12/11 09:14:49;;;;;;;16.90;14.82;;;;;;;9.73;52.59;100474.31;5087714;28;20051;-61
2021/12/11 09:17:23;;;;;;;21.60;15.48;;;;;;;9.84;52.42;100475.47;5089378;28;20082;-60
2021/12/11 09:20:12;;;;;;;14.57;11.07;;;;;;;9.89;51.87;100497.03;5090142;28;20047;-61
2021/12/11 09:22:44;;;;;;;79.55;46.53;;;;;;;10.01;51.88;100505.97;5083124;28;20123;-62
2021/12/11 09:25:16;;;;;;;29.88;20.40;;;;;;;10.20;51.30;100524.09;5085965;28;20105;-61
2021/12/11 09:28:06;;;;;;;81.22;56.97;;;;;;;10.32;51.19;100525.16;5086207;28;20499;-63
2021/12/11 09:30:47;;;;;;;28.02;18.00;;;;;;;10.47;50.91;100540.00;5087522;28;20138;-62
2021/12/11 09:33:27;;;;;;;16.83;12.10;;;;;;;10.39;51.02;100556.19;5091508;28;20044;-61
2021/12/11 09:36:04;;;;;;;17.33;11.10;;;;;;;10.47;50.91;100562.78;5088976;28;20502;-62
2021/12/11 09:38:35;;;;;;;16.63;12.40;;;;;;;10.64;50.61;100556.50;5088822;28;20066;-64
2021/12/11 09:41:17;;;;;;;19.80;14.68;;;;;;;10.78;50.13;100561.78;5088586;28;20492;-66
2021/12/11 09:43:51;;;;;;;30.58;22.38;;;;;;;10.99;49.87;100566.66;5071549;28;20102;-67
2021/12/11 09:46:31;;;;;;;42.10;28.98;;;;;;;11.09;49.77;100570.41;5071761;28;20052;-64
2021/12/11 09:48:59;;;;;;;25.35;17.17;;;;;;;11.17;49.71;100572.56;5081407;28;20066;-63
2021/12/11 09:51:31;;;;;;;17.77;13.90;;;;;;;11.28;49.32;100578.81;5090723;28;20040;-65
2021/12/11 09:54:02;;;;;;;13.52;9.77;;;;;;;11.39;49.12;100586.06;5088073;28;20063;-69
2021/12/11 09:56:37;;;;;;;14.32;8.93;;;;;;;11.58;49.21;100592.78;5090797;28;20050;-74
2021/12/11 09:59:09;;;;;;;16.02;10.50;;;;;;;11.65;49.32;100598.47;5090992;28;20064;-63
2021/12/11 10:01:44;;;;;;;16.10;10.75;;;;;;;11.71;48.92;100601.56;5091254;28;20044;-63
2021/12/11 10:04:32;;;;;;;12.27;9.80;;;;;;;11.77;48.31;100595.91;5078708;28;20959;-64
2021/12/11 10:09:48;;;;;;;15.55;11.10;;;;;;;11.88;47.89;100595.25;5088816;28;20047;-64
2021/12/11 10:12:22;;;;;;;14.57;10.32;;;;;;;11.95;47.77;100589.56;5088750;28;20043;-64
2021/12/11 10:14:59;;;;;;;12.73;9.70;;;;;;;12.08;47.60;100583.44;5087874;28;20492;-67
2021/12/11 10:17:37;;;;;;;14.18;9.43;;;;;;;12.16;47.44;100596.06;5089803;28;20056;-65
2021/12/11 10:20:09;;;;;;;12.98;9.13;;;;;;;12.29;47.14;100605.78;5088908;28;20044;-66
2021/12/11 10:22:41;;;;;;;14.15;9.35;;;;;;;12.31;47.08;100603.91;5090231;28;20047;-68
2021/12/11 10:25:20;;;;;;;12.55;9.20;;;;;;;12.35;46.81;100600.13;5082880;28;20051;-66
2021/12/11 10:27:48;;;;;;;12.75;10.10;;;;;;;12.34;47.00;100606.34;5089078;28;20060;-66
2021/12/11 10:30:20;;;;;;;12.75;9.60;;;;;;;12.39;46.73;100601.59;5087776;28;20036;-70
2021/12/11 10:32:47;;;;;;;12.32;9.80;;;;;;;12.44;46.83;100617.09;5090098;28;20048;-66
2021/12/11 10:35:26;;;;;;;13.93;9.75;;;;;;;12.53;46.87;100612.06;5089350;28;20052;-65
2021/12/11 10:37:53;;;;;;;13.40;10.25;;;;;;;12.56;46.94;100619.75;5085979;28;20487;-66
2021/12/11 10:40:28;;;;;;;13.95;9.55;;;;;;;12.57;46.89;100625.88;5085837;28;20039;-66
2021/12/11 10:43:00;;;;;;;16.10;8.93;;;;;;;12.52;46.79;100623.53;5088139;28;20044;-67
2021/12/11 10:45:28;;;;;;;12.60;8.55;;;;;;;12.48;47.19;100627.34;5075826;28;20043;-67
2021/12/11 10:48:00;;;;;;;11.68;8.30;;;;;;;12.39;47.18;100636.69;5077217;28;20036;-68
2021/12/11 10:50:50;;;;;;;11.25;8.50;;;;;;;12.22;47.51;100637.75;5087115;28;20040;-68
2021/12/11 10:53:21;;;;;;;10.82;8.50;;;;;;;12.06;48.10;100637.94;5072572;28;20040;-67
2021/12/11 10:55:49;;;;;;;12.43;10.10;;;;;;;11.87;48.52;100637.38;5068585;28;20045;-71
2021/12/11 10:58:20;;;;;;;14.57;8.93;;;;;;;11.67;48.85;100636.00;5069996;28;20382;-67
2021/12/11 11:01:01;;;;;;;14.05;9.30;;;;;;;11.46;49.70;100638.22;5069771;28;20048;-67
2021/12/11 11:03:31;;;;;;;12.70;9.82;;;;;;;11.20;50.07;100644.13;5070049;28;20128;-68
2021/12/11 11:05:58;;;;;;;13.60;8.60;;;;;;;10.94;50.89;100651.81;5069661;28;20120;-66
2021/12/11 11:08:25;;;;;;;13.00;9.07;;;;;;;10.93;51.98;100651.88;5069500;28;20045;-66
2021/12/11 11:10:56;;;;;;;15.35;9.23;;;;;;;10.67;52.31;100650.81;5069000;28;20064;-67
2021/12/11 11:13:25;;;;;;;12.10;9.52;;;;;;;10.32;52.93;100653.66;5069329;28;20064;-67
2021/12/11 11:15:53;;;;;;;13.40;9.20;;;;;;;10.21;53.45;100651.63;5069495;28;20055;-67
2021/12/11 11:18:24;;;;;;;19.50;12.60;;;;;;;9.97;53.77;100657.34;5086958;28;20055;-65
2021/12/11 11:21:09;;;;;;;16.77;10.52;;;;;;;9.82;54.14;100664.28;5089222;28;20511;-69
2021/12/11 11:23:37;;;;;;;17.50;11.43;;;;;;;9.69;54.47;100651.00;5088763;28;20130;-67
2021/12/11 11:26:11;;;;;;;12.68;7.80;;;;;;;9.63;54.68;100654.78;5088355;28;20127;-64
2021/12/11 11:28:39;;;;;;;13.32;7.85;;;;;;;9.57;54.38;100659.50;5089051;28;20059;-65
2021/12/11 11:31:20;;;;;;;10.73;6.88;;;;;;;9.53;54.17;100643.09;5080439;28;20077;-66
2021/12/11 11:33:48;;;;;;;35.10;17.48;;;;;;;9.49;54.02;100652.06;5074545;28;20060;-65
2021/12/11 11:36:18;;;;;;;19.88;10.57;;;;;;;9.48;54.00;100653.84;5068633;28;20048;-65
2021/12/11 11:38:51;;;;;;;22.35;11.63;;;;;;;9.50;54.13;100656.38;5069275;28;20048;-66
2021/12/11 11:41:23;;;;;;;16.92;11.18;;;;;;;9.44;54.42;100659.31;5067946;28;20052;-66
2021/12/11 11:43:51;;;;;;;16.50;12.15;;;;;;;9.45;54.51;100663.66;5068439;28;20045;-68
2021/12/11 11:46:19;;;;;;;18.13;11.60;;;;;;;9.38;55.06;100668.34;5068582;28;20056;-63
2021/12/11 11:48:49;;;;;;;15.70;9.90;;;;;;;9.37;55.47;100666.66;5068898;28;20128;-65
2021/12/11 11:51:27;;;;;;;20.33;12.00;;;;;;;9.40;55.66;100669.13;5069005;28;20385;-65
2021/12/11 11:53:54;;;;;;;83.88;49.22;;;;;;;9.37;55.87;100671.03;5069412;28;20398;-64
2021/12/11 11:56:29;;;;;;;19.67;11.73;;;;;;;9.40;55.85;100666.50;5069053;28;20041;-65
2021/12/11 11:58:57;;;;;;;35.78;21.85;;;;;;;9.40;56.08;100669.13;5068824;28;20134;-64
2021/12/11 12:01:38;;;;;;;88.95;43.60;;;;;;;9.40;56.31;100676.13;5086946;28;20048;-61
2021/12/11 12:04:08;;;;;;;21.80;14.45;;;;;;;9.41;56.27;100670.81;5089143;28;20054;-63